createdAt,value
2018-09-20T00:02:29.695Z,20.00
2018-09-20T00:05:02.077Z,20.00
2018-09-20T00:07:34.812Z,20.00
2018-09-20T00:10:07.640Z,20.10
2018-09-20T00:12:40.792Z,20.10
2018-09-20T00:15:13.160Z,20.10
2018-09-20T00:17:45.340Z,20.20
2018-09-20T00:20:18.366Z,20.20
2018-09-20T00:22:50.890Z,20.30
2018-09-20T00:25:23.112Z,20.30
2018-09-20T00:27:55.297Z,20.30
2018-09-20T00:30:27.595Z,20.30
2018-09-20T00:32:59.896Z,20.30
2018-09-20T00:35:32.602Z,20.30
2018-09-20T00:38:05.093Z,20.30
2018-09-20T00:40:37.514Z,20.30
2018-09-20T00:43:10.829Z,20.20
2018-09-20T00:45:43.358Z,20.30
2018-09-20T00:48:16.003Z,20.20
2018-09-20T00:50:48.427Z,20.20
2018-09-20T00:53:20.934Z,20.20
2018-09-20T00:55:53.578Z,20.20
2018-09-20T00:58:25.994Z,20.20
2018-09-20T01:00:58.602Z,20.10
2018-09-20T01:03:31.185Z,20.10
2018-09-20T01:06:03.532Z,20.10
2018-09-20T01:08:36.101Z,20.00
2018-09-20T01:11:08.857Z,20.00
2018-09-20T01:13:41.605Z,20.00
2018-09-20T01:16:13.873Z,19.90
2018-09-20T01:18:46.573Z,19.90
2018-09-20T01:21:18.859Z,19.80
2018-09-20T01:23:51.175Z,19.80
2018-09-20T01:26:23.490Z,19.70
2018-09-20T01:28:55.945Z,19.60
2018-09-20T01:31:28.554Z,19.50
2018-09-20T01:34:00.850Z,19.50
2018-09-20T01:36:34.144Z,19.40
2018-09-20T01:39:10.663Z,19.20
2018-09-20T01:41:43.297Z,19.20
2018-09-20T01:44:15.721Z,19.10
2018-09-20T01:46:48.537Z,19.00
2018-09-20T01:49:21.043Z,18.90
2018-09-20T01:51:53.382Z,18.90
2018-09-20T01:54:25.691Z,18.70
2018-09-20T01:56:58.071Z,18.60
2018-09-20T01:59:30.299Z,18.50
2018-09-20T02:02:02.980Z,18.40
2018-09-20T02:04:35.720Z,18.20
2018-09-20T02:07:08.273Z,18.10
2018-09-20T02:09:40.754Z,18.00
2018-09-20T02:12:13.161Z,17.90
2018-09-20T02:14:45.600Z,17.80
2018-09-20T02:17:17.960Z,17.70
2018-09-20T02:19:50.517Z,17.70
2018-09-20T02:22:22.946Z,17.60
2018-09-20T02:24:55.338Z,17.50
2018-09-20T02:27:27.753Z,17.40
2018-09-20T02:30:00.101Z,17.30
2018-09-20T02:32:32.561Z,17.30
2018-09-20T02:35:04.962Z,17.20
2018-09-20T02:37:37.650Z,17.10
2018-09-20T02:40:10.101Z,17.10
2018-09-20T02:42:42.439Z,17.00
2018-09-20T02:45:15.053Z,17.00
2018-09-20T02:47:47.895Z,16.90
2018-09-20T02:50:20.525Z,16.80
2018-09-20T02:52:53.112Z,16.80
2018-09-20T02:55:25.484Z,16.80
2018-09-20T02:57:57.865Z,16.70
2018-09-20T03:00:30.180Z,16.60
2018-09-20T03:03:02.821Z,16.70
2018-09-20T03:05:35.160Z,16.50
2018-09-20T03:08:07.296Z,16.50
2018-09-20T03:10:39.434Z,16.50
2018-09-20T03:13:11.973Z,16.50
2018-09-20T03:15:44.546Z,16.50
2018-09-20T03:18:17.096Z,16.40
2018-09-20T03:20:49.280Z,16.40
2018-09-20T03:23:21.537Z,16.40
2018-09-20T03:25:54.199Z,16.40
2018-09-20T03:28:27.834Z,16.40
2018-09-20T03:31:00.558Z,16.30
2018-09-20T03:33:32.815Z,16.20
2018-09-20T03:36:05.323Z,16.30
2018-09-20T03:38:38.048Z,16.20
2018-09-20T03:41:10.476Z,16.30
2018-09-20T03:43:42.910Z,16.20
2018-09-20T03:46:15.090Z,16.10
2018-09-20T03:48:47.451Z,16.10
2018-09-20T03:51:19.669Z,16.10
2018-09-20T03:53:52.244Z,16.00
2018-09-20T03:56:24.664Z,16.00
2018-09-20T03:58:57.018Z,16.00
2018-09-20T04:01:29.322Z,15.90
2018-09-20T04:04:01.554Z,15.90
2018-09-20T04:06:34.090Z,15.80
2018-09-20T04:09:08.775Z,15.80
2018-09-20T04:11:41.747Z,15.80
2018-09-20T04:14:14.197Z,15.80
2018-09-20T04:16:46.667Z,15.80
2018-09-20T04:19:19.371Z,15.70
2018-09-20T04:21:51.944Z,15.70
2018-09-20T04:24:24.516Z,15.70
2018-09-20T04:26:57.116Z,15.70
2018-09-20T04:29:29.677Z,15.70
2018-09-20T04:32:02.094Z,15.60
2018-09-20T04:34:34.908Z,15.60
2018-09-20T04:37:07.085Z,15.50
2018-09-20T04:39:39.263Z,15.50
2018-09-20T04:42:12.151Z,15.40
2018-09-20T04:44:44.317Z,15.40
2018-09-20T04:47:16.404Z,15.40
2018-09-20T04:49:48.704Z,15.40
2018-09-20T04:52:20.810Z,15.40
2018-09-20T04:54:53.234Z,15.30
2018-09-20T04:57:25.262Z,15.30
2018-09-20T04:59:57.104Z,15.30
2018-09-20T05:02:29.284Z,15.30
2018-09-20T05:05:01.463Z,15.20
2018-09-20T05:07:33.750Z,15.20
2018-09-20T05:10:06.473Z,15.20
2018-09-20T05:12:40.066Z,15.20
2018-09-20T05:15:12.870Z,15.10
2018-09-20T05:17:45.200Z,15.10
2018-09-20T05:20:19.769Z,15.00
2018-09-20T05:22:51.963Z,15.10
2018-09-20T05:25:24.617Z,15.00
2018-09-20T05:27:56.749Z,15.00
2018-09-20T05:30:29.604Z,15.00
2018-09-20T05:33:01.966Z,15.00
2018-09-20T05:35:34.234Z,15.00
2018-09-20T05:38:06.750Z,14.90
2018-09-20T05:40:39.318Z,14.90
2018-09-20T05:43:11.689Z,14.90
2018-09-20T05:45:44.209Z,14.90
2018-09-20T05:48:16.860Z,14.90
2018-09-20T05:50:49.343Z,14.90
2018-09-20T05:53:21.771Z,14.90
2018-09-20T05:55:54.451Z,14.80
2018-09-20T05:58:26.731Z,14.80
2018-09-20T06:00:59.135Z,14.80
2018-09-20T06:03:31.886Z,14.80
2018-09-20T06:06:04.278Z,14.80
2018-09-20T06:08:36.465Z,14.80
2018-09-20T06:11:08.381Z,14.80
2018-09-20T06:13:40.825Z,14.80
2018-09-20T06:16:13.230Z,14.90
2018-09-20T06:18:45.614Z,14.90
2018-09-20T06:21:18.098Z,14.90
2018-09-20T06:23:50.530Z,14.80
2018-09-20T06:26:22.958Z,14.80
2018-09-20T06:28:55.434Z,14.80
2018-09-20T06:31:27.868Z,14.90
2018-09-20T06:34:00.009Z,14.90
2018-09-20T06:36:32.731Z,14.80
2018-09-20T06:39:05.917Z,14.90
2018-09-20T06:41:38.628Z,14.80
2018-09-20T06:44:11.181Z,14.90
2018-09-20T06:46:43.438Z,14.90
2018-09-20T06:49:15.800Z,14.90
2018-09-20T06:51:48.379Z,14.90
2018-09-20T06:54:20.731Z,14.90
2018-09-20T06:56:53.008Z,14.90
2018-09-20T06:59:25.172Z,14.80
2018-09-20T07:01:57.591Z,14.80
2018-09-20T07:04:29.914Z,14.80
2018-09-20T07:07:02.320Z,14.80
2018-09-20T07:09:34.578Z,14.80
2018-09-20T07:12:06.989Z,14.80
2018-09-20T07:14:39.536Z,14.80
2018-09-20T07:17:12.229Z,14.80
2018-09-20T07:19:44.623Z,14.80
2018-09-20T07:22:17.155Z,14.70
2018-09-20T07:24:49.249Z,14.70
2018-09-20T07:27:21.490Z,14.70
2018-09-20T07:29:53.823Z,14.70
2018-09-20T07:32:26.109Z,14.60
2018-09-20T07:34:58.457Z,14.60
2018-09-20T07:37:30.947Z,14.50
2018-09-20T07:40:03.823Z,14.50
2018-09-20T07:42:36.245Z,14.40
2018-09-20T07:45:08.631Z,14.40
2018-09-20T07:47:41.013Z,14.30
2018-09-20T07:50:13.313Z,14.30
2018-09-20T07:52:46.031Z,14.20
2018-09-20T07:55:18.392Z,14.20
2018-09-20T07:57:50.817Z,14.20
2018-09-20T08:00:23.225Z,14.10
2018-09-20T08:02:55.821Z,14.00
2018-09-20T08:05:28.307Z,14.00
2018-09-20T08:08:00.850Z,13.90
2018-09-20T08:10:33.573Z,13.80
2018-09-20T08:13:05.905Z,13.70
2018-09-20T08:15:38.174Z,13.60
2018-09-20T08:18:10.545Z,13.50
2018-09-20T08:20:42.881Z,13.40
2018-09-20T08:23:15.177Z,13.40
2018-09-20T08:25:47.629Z,13.20
2018-09-20T08:28:20.097Z,13.10
2018-09-20T08:30:52.458Z,13.10
2018-09-20T08:33:25.120Z,13.00
2018-09-20T08:35:57.664Z,12.90
2018-09-20T08:38:30.056Z,12.80
2018-09-20T08:41:02.766Z,12.70
2018-09-20T08:43:35.405Z,12.70
2018-09-20T08:46:08.143Z,12.50
2018-09-20T08:48:40.505Z,12.50
2018-09-20T08:51:12.649Z,12.40
2018-09-20T08:53:44.942Z,12.30
2018-09-20T08:56:17.354Z,12.30
2018-09-20T08:58:49.588Z,12.20
2018-09-20T09:01:21.845Z,12.20
2018-09-20T09:03:55.205Z,12.10
2018-09-20T09:06:27.605Z,12.00
2018-09-20T09:09:00.359Z,12.00
2018-09-20T09:11:32.771Z,11.90
2018-09-20T09:14:05.583Z,11.80
2018-09-20T09:16:37.914Z,11.80
2018-09-20T09:19:10.158Z,11.80
2018-09-20T09:21:42.698Z,11.70
2018-09-20T09:24:14.897Z,11.70
2018-09-20T09:26:47.244Z,11.60
2018-09-20T09:29:19.589Z,11.60
2018-09-20T09:31:51.962Z,11.50
2018-09-20T09:34:24.761Z,11.50
2018-09-20T09:36:57.309Z,11.40
2018-09-20T09:39:29.904Z,11.40
2018-09-20T09:42:02.203Z,11.40
2018-09-20T09:44:34.546Z,11.40
2018-09-20T09:47:06.728Z,11.30
2018-09-20T09:49:39.309Z,11.30
2018-09-20T09:52:11.731Z,11.20
2018-09-20T09:54:44.464Z,11.20
2018-09-20T09:57:16.898Z,11.20
2018-09-20T09:59:49.153Z,11.10
2018-09-20T10:02:21.680Z,11.10
2018-09-20T10:04:54.828Z,11.00
2018-09-20T10:07:27.182Z,11.00
2018-09-20T10:09:59.925Z,11.00
2018-09-20T10:12:32.437Z,10.90
2018-09-20T10:15:05.089Z,10.90
2018-09-20T10:17:37.294Z,10.90
2018-09-20T10:20:08.903Z,10.90
2018-09-20T10:22:41.454Z,10.80
2018-09-20T10:25:12.810Z,10.80
2018-09-20T10:27:45.212Z,10.80
2018-09-20T10:30:17.504Z,10.80
2018-09-20T10:32:49.718Z,10.70
2018-09-20T10:35:22.257Z,10.70
2018-09-20T10:37:54.677Z,10.70
2018-09-20T10:40:27.277Z,10.70
2018-09-20T10:42:59.889Z,10.60
2018-09-20T10:45:32.324Z,10.60
2018-09-20T10:48:04.618Z,10.60
2018-09-20T10:50:37.046Z,10.60
2018-09-20T10:53:09.368Z,10.50
2018-09-20T10:55:41.430Z,10.50
2018-09-20T10:58:13.815Z,10.50
2018-09-20T11:00:46.009Z,10.40
2018-09-20T11:03:18.369Z,10.40
2018-09-20T11:05:50.695Z,10.40
2018-09-20T11:08:22.963Z,10.40
2018-09-20T11:10:55.866Z,10.40
2018-09-20T11:13:28.172Z,10.30
2018-09-20T11:16:00.570Z,10.30
2018-09-20T11:18:33.185Z,10.30
2018-09-20T11:21:05.583Z,10.60
2018-09-20T11:23:37.913Z,10.30
2018-09-20T11:26:10.315Z,10.20
2018-09-20T11:28:42.662Z,10.20
2018-09-20T11:31:15.275Z,10.20
2018-09-20T11:33:47.446Z,10.20
2018-09-20T11:36:20.117Z,10.10
2018-09-20T11:38:52.572Z,10.10
2018-09-20T11:41:24.983Z,10.10
2018-09-20T11:43:57.752Z,10.00
2018-09-20T11:46:30.006Z,10.00
2018-09-20T11:49:02.280Z,10.10
2018-09-20T11:51:34.454Z,10.00
2018-09-20T11:54:07.030Z,10.00
2018-09-20T11:56:39.298Z,9.90
2018-09-20T11:59:11.489Z,9.90
2018-09-20T12:01:44.122Z,9.90
2018-09-20T12:04:16.411Z,9.80
2018-09-20T12:06:48.876Z,9.80
2018-09-20T12:09:21.194Z,9.80
2018-09-20T12:11:53.688Z,9.90
2018-09-20T12:14:26.047Z,9.70
2018-09-20T12:16:58.391Z,9.70
2018-09-20T12:19:30.746Z,9.90
2018-09-20T12:22:02.987Z,9.70
2018-09-20T12:24:35.577Z,9.70
2018-09-20T12:27:08.316Z,9.70
2018-09-20T12:29:40.788Z,9.70
2018-09-20T12:32:13.391Z,9.60
2018-09-20T12:34:45.836Z,9.60
2018-09-20T12:37:18.162Z,9.60
2018-09-20T12:39:50.741Z,9.70
2018-09-20T12:42:22.917Z,9.80
2018-09-20T12:44:55.264Z,9.50
2018-09-20T12:47:27.692Z,9.40
2018-09-20T12:50:00.222Z,9.50
2018-09-20T12:52:33.418Z,9.50
2018-09-20T12:55:05.636Z,9.50
2018-09-20T12:57:37.752Z,9.70
2018-09-20T13:00:11.109Z,9.40
2018-09-20T13:02:43.535Z,9.50
2018-09-20T13:05:15.911Z,9.50
2018-09-20T13:07:48.334Z,9.40
2018-09-20T13:10:20.726Z,9.40
2018-09-20T13:12:53.139Z,9.40
2018-09-20T13:15:25.202Z,9.40
2018-09-20T13:17:57.451Z,9.40
2018-09-20T13:20:29.815Z,9.40
2018-09-20T13:23:02.179Z,9.40
2018-09-20T13:25:34.658Z,9.30
2018-09-20T13:28:07.341Z,9.30
2018-09-20T13:30:39.736Z,9.40
2018-09-20T13:33:12.180Z,9.30
2018-09-20T13:35:44.468Z,9.20
2018-09-20T13:38:17.022Z,9.20
2018-09-20T13:40:49.384Z,9.20
2018-09-20T13:43:21.838Z,9.20
2018-09-20T13:45:54.027Z,9.40
2018-09-20T13:48:26.778Z,9.20
2018-09-20T13:50:58.980Z,9.20
2018-09-20T13:53:31.400Z,9.20
2018-09-20T13:56:04.013Z,9.40
2018-09-20T13:58:36.392Z,9.20
2018-09-20T14:01:09.185Z,9.40
2018-09-20T14:03:41.463Z,9.20
2018-09-20T14:06:14.142Z,9.20
2018-09-20T14:08:47.378Z,9.20
2018-09-20T14:11:19.931Z,9.20
2018-09-20T14:13:52.391Z,9.20
2018-09-20T14:16:25.056Z,9.40
2018-09-20T14:18:57.726Z,9.20
2018-09-20T14:21:30.115Z,9.20
2018-09-20T14:24:02.645Z,9.20
2018-09-20T14:26:35.065Z,9.30
2018-09-20T14:29:07.671Z,9.30
2018-09-20T14:31:40.145Z,9.40
2018-09-20T14:34:12.355Z,9.70
2018-09-20T14:36:45.327Z,9.40
2018-09-20T14:39:17.524Z,9.70
2018-09-20T14:41:49.964Z,9.60
2018-09-20T14:44:22.182Z,9.60
2018-09-20T14:46:54.780Z,9.70
2018-09-20T14:49:26.937Z,9.70
2018-09-20T14:51:59.625Z,9.80
2018-09-20T14:54:32.191Z,10.00
2018-09-20T14:57:04.619Z,10.10
2018-09-20T14:59:36.983Z,10.20
2018-09-20T15:02:09.366Z,10.30
2018-09-20T15:04:41.646Z,10.40
2018-09-20T15:07:13.917Z,10.60
2018-09-20T15:09:46.157Z,10.70
2018-09-20T15:12:18.198Z,10.80
2018-09-20T15:14:51.348Z,11.00
2018-09-20T15:17:23.478Z,11.10
2018-09-20T15:19:55.929Z,11.30
2018-09-20T15:22:28.517Z,11.50
2018-09-20T15:25:01.055Z,11.60
2018-09-20T15:27:33.279Z,11.80
2018-09-20T15:30:06.023Z,12.00
2018-09-20T15:32:38.580Z,12.20
2018-09-20T15:35:11.225Z,12.30
2018-09-20T15:37:43.562Z,12.40
2018-09-20T15:40:15.880Z,12.60
2018-09-20T15:42:48.438Z,12.70
2018-09-20T15:45:21.150Z,12.80
2018-09-20T15:47:53.557Z,13.00
2018-09-20T15:50:25.768Z,13.20
2018-09-20T15:52:57.776Z,13.40
2018-09-20T15:55:30.303Z,13.60
2018-09-20T15:58:02.337Z,13.80
2018-09-20T16:00:34.956Z,14.00
2018-09-20T16:03:08.267Z,14.20
2018-09-20T16:05:40.731Z,14.40
2018-09-20T16:08:13.091Z,14.60
2018-09-20T16:10:45.339Z,14.90
2018-09-20T16:13:17.777Z,15.00
2018-09-20T16:15:49.938Z,15.30
2018-09-20T16:18:22.131Z,15.70
2018-09-20T16:20:54.756Z,16.20
2018-09-20T16:23:27.487Z,16.20
2018-09-20T16:26:00.090Z,16.50
2018-09-20T16:30:58.987Z,16.60
2018-09-20T16:34:42.782Z,16.50
2018-09-20T16:37:35.527Z,16.20
2018-09-20T16:40:09.038Z,16.30
2018-09-20T16:42:45.520Z,16.40
2018-09-20T16:45:18.078Z,16.60
2018-09-20T16:47:50.317Z,16.80
2018-09-20T16:50:22.623Z,17.00
2018-09-20T16:52:55.235Z,17.10
2018-09-20T16:55:27.496Z,17.00
2018-09-20T16:57:59.834Z,17.20
2018-09-20T17:00:32.242Z,17.40
2018-09-20T17:03:04.493Z,17.50
2018-09-20T17:05:36.681Z,17.30
2018-09-20T17:08:09.059Z,17.40
2018-09-20T17:10:41.527Z,17.30
2018-09-20T17:13:13.754Z,17.30
2018-09-20T17:15:46.209Z,17.20
2018-09-20T17:18:18.912Z,16.90
2018-09-20T17:20:51.282Z,16.50
2018-09-20T17:23:23.681Z,16.50
2018-09-20T17:25:55.859Z,16.50
2018-09-20T17:28:28.619Z,16.20
2018-09-20T17:31:01.345Z,16.30
2018-09-20T17:33:33.619Z,16.40
2018-09-20T17:36:06.064Z,16.30
2018-09-20T17:38:40.284Z,16.40
2018-09-20T17:41:18.266Z,16.50
2018-09-20T17:43:55.683Z,16.40
2018-09-20T17:46:27.942Z,16.50
2018-09-20T17:49:00.277Z,16.60
2018-09-20T17:51:33.647Z,16.70
2018-09-20T17:54:06.610Z,17.00
2018-09-20T17:56:39.755Z,17.10
2018-09-20T17:59:11.866Z,17.30
2018-09-20T18:01:44.442Z,17.50
2018-09-20T18:04:17.156Z,17.50
2018-09-20T18:06:49.793Z,17.30
2018-09-20T18:09:22.314Z,17.20
2018-09-20T18:11:54.561Z,17.40
2018-09-20T18:14:26.892Z,17.40
2018-09-20T18:16:59.264Z,17.40
2018-09-20T18:19:31.808Z,17.20
2018-09-20T18:22:04.715Z,17.20
2018-09-20T18:24:37.237Z,17.20
2018-09-20T18:27:09.585Z,17.30
2018-09-20T18:29:42.564Z,17.40
2018-09-20T18:32:14.907Z,17.40
2018-09-20T18:34:47.267Z,17.30
2018-09-20T18:37:19.644Z,17.30
2018-09-20T18:39:51.827Z,17.30
2018-09-20T18:42:24.241Z,17.30
2018-09-20T18:44:56.581Z,17.40
2018-09-20T18:47:29.128Z,17.50
2018-09-20T18:50:01.994Z,17.70
2018-09-20T18:52:34.592Z,17.90
2018-09-20T18:55:07.097Z,18.10
2018-09-20T18:57:39.749Z,18.20
2018-09-20T19:00:12.165Z,18.30
2018-09-20T19:02:44.698Z,18.40
2018-09-20T19:05:17.060Z,18.40
2018-09-20T19:07:49.516Z,18.50
2018-09-20T19:10:21.706Z,18.50
2018-09-20T19:12:54.078Z,18.60
2018-09-20T19:15:26.436Z,18.70
2018-09-20T19:17:58.805Z,18.70
2018-09-20T19:20:31.439Z,18.70
2018-09-20T19:23:03.769Z,18.70
2018-09-20T19:25:36.228Z,18.50
2018-09-20T19:28:08.768Z,18.40
2018-09-20T19:30:41.590Z,18.40
2018-09-20T19:33:13.980Z,18.40
2018-09-20T19:35:46.438Z,18.50
2018-09-20T19:38:18.869Z,18.60
2018-09-20T19:40:51.054Z,18.60
2018-09-20T19:43:23.563Z,18.60
2018-09-20T19:45:56.217Z,18.70
2018-09-20T19:48:28.614Z,18.50
2018-09-20T19:51:00.851Z,18.60
2018-09-20T19:53:33.346Z,18.70
2018-09-20T19:56:06.582Z,18.80
2018-09-20T19:58:38.910Z,18.90
2018-09-20T20:01:11.248Z,19.00
2018-09-20T20:03:43.851Z,19.00
2018-09-20T20:06:16.150Z,19.10
2018-09-20T20:08:48.674Z,19.10
2018-09-20T20:11:21.285Z,19.10
2018-09-20T20:13:54.325Z,19.00
2018-09-20T20:16:26.709Z,19.00
2018-09-20T20:18:59.147Z,19.00
2018-09-20T20:21:31.205Z,19.00
2018-09-20T20:24:03.735Z,19.10
2018-09-20T20:26:36.115Z,19.00
2018-09-20T20:29:08.344Z,19.00
2018-09-20T20:31:40.863Z,18.90
2018-09-20T20:34:13.253Z,18.90
2018-09-20T20:36:45.603Z,18.90
2018-09-20T20:39:17.757Z,18.90
2018-09-20T20:41:49.825Z,18.90
2018-09-20T20:44:22.663Z,18.80
2018-09-20T20:46:56.041Z,18.90
2018-09-20T20:49:28.536Z,18.90
2018-09-20T20:52:01.367Z,18.90
2018-09-20T20:54:33.843Z,19.00
2018-09-20T20:57:06.435Z,19.00
2018-09-20T20:59:39.152Z,19.10
2018-09-20T21:02:11.603Z,19.20
2018-09-20T21:04:44.105Z,19.20
2018-09-20T21:07:16.499Z,19.20
2018-09-20T21:09:49.109Z,19.10
2018-09-20T21:12:21.537Z,19.20
2018-09-20T21:14:53.874Z,19.10
2018-09-20T21:17:26.631Z,19.10
2018-09-20T21:19:59.005Z,19.10
2018-09-20T21:22:31.617Z,19.00
2018-09-20T21:25:04.144Z,19.00
2018-09-20T21:27:36.852Z,19.00
2018-09-20T21:30:09.117Z,19.10
2018-09-20T21:32:41.507Z,19.10
2018-09-20T21:35:13.915Z,19.10
2018-09-20T21:37:46.032Z,19.10
2018-09-20T21:40:18.554Z,19.20
2018-09-20T21:42:54.168Z,19.20
2018-09-20T21:45:26.882Z,19.20
2018-09-20T21:47:59.514Z,19.10
2018-09-20T21:50:32.053Z,19.10
2018-09-20T21:53:04.443Z,19.10
2018-09-20T21:55:36.655Z,19.10
2018-09-20T21:58:09.366Z,19.20
2018-09-20T22:00:41.707Z,19.20
2018-09-20T22:03:14.254Z,19.20
2018-09-20T22:05:46.599Z,19.20
2018-09-20T22:08:18.731Z,19.30
2018-09-20T22:10:51.351Z,19.30
2018-09-20T22:13:23.923Z,19.30
2018-09-20T22:15:57.417Z,19.40
2018-09-20T22:18:30.012Z,19.50
2018-09-20T22:21:02.758Z,19.70
2018-09-20T22:23:34.859Z,19.80
2018-09-20T22:26:07.100Z,19.70
2018-09-20T22:28:39.468Z,19.70
2018-09-20T22:31:11.876Z,19.70
2018-09-20T22:33:44.182Z,19.70
2018-09-20T22:36:16.374Z,19.80
2018-09-20T22:38:49.288Z,19.80
2018-09-20T22:41:21.297Z,19.80
2018-09-20T22:43:53.535Z,19.90
2018-09-20T22:46:25.701Z,20.00
2018-09-20T22:48:58.348Z,20.00
2018-09-20T22:51:30.633Z,20.00
2018-09-20T22:54:03.004Z,20.00
2018-09-20T22:56:35.546Z,20.00
2018-09-20T22:59:08.172Z,20.00
2018-09-20T23:01:40.868Z,20.00
2018-09-20T23:04:14.990Z,20.00
2018-09-20T23:06:47.302Z,20.00
2018-09-20T23:09:19.786Z,20.10
2018-09-20T23:11:52.059Z,20.00
2018-09-20T23:14:24.251Z,20.00
2018-09-20T23:16:56.711Z,20.10
2018-09-20T23:19:29.081Z,20.10
2018-09-20T23:22:01.380Z,20.10
2018-09-20T23:24:33.642Z,20.10
2018-09-20T23:27:06.046Z,20.20
2018-09-20T23:29:38.564Z,20.20
2018-09-20T23:32:10.918Z,20.20
2018-09-20T23:34:43.727Z,20.20
2018-09-20T23:37:16.269Z,20.20
2018-09-20T23:39:48.679Z,20.20
2018-09-20T23:42:21.276Z,20.20
2018-09-20T23:44:53.419Z,20.10
2018-09-20T23:47:26.226Z,20.10
2018-09-20T23:49:58.388Z,20.20
2018-09-20T23:52:30.922Z,20.20
2018-09-20T23:55:03.938Z,20.20
2018-09-20T23:57:36.285Z,20.10
